Time;durP1;ratioP1;P1;durP2;ratioP2;P2;SDS_P1;SDS_P2;PMS_P1;PMS_P2;Temp;Humidity;BMP_temperature;BMP_pressure;BME280_temperature;BME280_humidity;BME280_pressure;Samples;Min_cycle;Max_cycle;Signal;HPM_P1;HPM_P2
2024/01/10 00:00:55;;;;;;;11.90;10.27;;;-0.20;99.90;;;-0.33;54.30;102993.81;5041476;28;20795;-73
2024/01/10 00:03:24;;;;;;;13.30;9.73;;;-0.30;99.90;;;-0.60;54.88;102989.19;5044786;28;20509;-74
2024/01/10 00:05:52;;;;;;;24.77;10.80;;;-0.50;99.90;;;-0.48;55.01;102985.78;5044720;28;20049;-74
2024/01/10 00:08:21;;;;;;;12.90;9.47;;;-0.40;99.90;;;-0.70;55.24;102978.91;5042255;28;20037;-73
2024/01/10 00:10:50;;;;;;;10.97;9.87;;;-0.60;99.90;;;-0.54;55.83;102972.34;5042947;28;20152;-73
2024/01/10 00:13:18;;;;;;;13.27;9.80;;;-0.50;99.90;;;-0.53;55.69;102978.44;5044277;28;20059;-75
2024/01/10 00:15:47;;;;;;;10.13;9.10;;;-0.50;99.90;;;-0.54;55.85;102977.53;5074213;28;20045;-74
2024/01/10 00:18:17;;;;;;;10.37;9.37;;;-0.50;99.90;;;-0.54;55.79;102974.94;5041316;28;20088;-73
2024/01/10 00:20:45;;;;;;;12.25;10.13;;;-0.50;99.90;;;-0.50;56.29;102976.97;5044032;28;20490;-75
2024/01/10 00:23:14;;;;;;;11.13;9.97;;;-0.50;99.90;;;-0.45;56.31;102973.03;5042665;28;20046;-76
2024/01/10 00:25:42;;;;;;;10.73;9.40;;;-0.40;99.90;;;-0.43;56.54;102979.25;5042233;28;20071;-75
2024/01/10 00:28:11;;;;;;;11.13;10.03;;;-0.40;99.90;;;-0.43;56.34;102967.94;5044128;28;20048;-76
2024/01/10 00:30:40;;;;;;;12.50;10.43;;;-0.40;99.90;;;-0.54;56.74;102968.88;5040870;28;20060;-78
2024/01/10 00:33:08;;;;;;;13.63;10.63;;;-0.40;99.90;;;-0.54;56.94;102974.06;5042468;28;20057;-75
2024/01/10 00:35:38;;;;;;;11.73;10.53;;;-0.50;99.90;;;-0.46;57.43;102971.22;5042530;28;20072;-75
2024/01/10 00:38:07;;;;;;;13.07;10.48;;;-0.40;99.90;;;-0.42;57.55;102974.94;5041991;28;20048;-74
2024/01/10 00:40:35;;;;;;;12.13;10.70;;;-0.40;99.90;;;-0.44;57.71;102966.13;5043701;28;20098;-73
2024/01/10 00:43:04;;;;;;;12.40;11.10;;;-0.40;99.90;;;-0.51;57.99;102966.47;5040940;28;20143;-73
2024/01/10 00:45:33;;;;;;;14.17;10.97;;;-0.50;99.90;;;-0.40;58.28;102976.88;5043543;28;20428;-78
2024/01/10 00:48:01;;;;;;;11.87;10.37;;;-0.40;99.90;;;-0.37;58.26;102978.81;5042317;28;20045;-76
2024/01/10 00:50:29;;;;;;;12.63;10.93;;;-0.40;99.90;;;-0.31;58.09;102964.53;5042454;28;20107;-74
2024/01/10 00:52:59;;;;;;;11.40;10.03;;;-0.30;99.90;;;-0.34;58.01;102961.72;5043449;28;20091;-76
2024/01/10 00:55:28;;;;;;;11.30;10.20;;;-0.30;99.90;;;-0.28;58.19;102953.47;5039537;28;20410;-76
2024/01/10 00:57:56;;;;;;;11.37;10.23;;;-0.20;99.90;;;-0.29;58.04;102965.53;5043475;28;20482;-76
2024/01/10 01:00:25;;;;;;;12.23;10.70;;;-0.20;99.90;;;-0.37;58.30;102950.22;5041741;28;20049;-76
2024/01/10 01:02:54;;;;;;;11.93;10.20;;;-0.30;99.90;;;-0.28;58.16;102969.06;5041941;28;20067;-75
2024/01/10 01:05:22;;;;;;;11.53;10.20;;;-0.30;99.90;;;-0.26;58.60;102959.69;5049769;28;20049;-75
2024/01/10 01:07:50;;;;;;;11.70;10.43;;;-0.20;99.90;;;-0.27;58.14;102947.47;5047872;28;20056;-75
2024/01/10 01:10:21;;;;;;;12.10;10.70;;;-0.20;99.90;;;-0.24;58.56;102959.00;5040671;28;20052;-77
2024/01/10 01:12:49;;;;;;;;;;;-0.20;99.90;;;-0.28;58.79;102954.38;5043107;28;20494;-76
2024/01/10 01:15:17;;;;;;;12.13;10.93;;;-0.20;99.90;;;-0.30;59.05;102966.34;5042289;28;19921;-76
2024/01/10 01:17:46;;;;;;;12.23;10.93;;;-0.20;99.90;;;-0.37;58.86;102963.19;5041699;28;20053;-77
2024/01/10 01:20:15;;;;;;;13.83;11.00;;;-0.30;99.90;;;-0.46;59.47;102970.31;5043728;28;20109;-76
2024/01/10 01:22:43;;;;;;;12.27;10.83;;;-0.40;99.90;;;-0.43;59.38;102984.47;5039575;28;20571;-77
2024/01/10 01:25:12;;;;;;;11.70;10.53;;;-0.40;99.90;;;-0.31;59.70;102948.06;5042900;28;20095;-76
2024/01/10 01:27:42;;;;;;;12.17;10.70;;;-0.30;99.90;;;-0.26;59.52;102962.28;5041918;28;20502;-77
2024/01/10 01:30:12;;;;;;;11.73;10.52;;;-0.20;99.90;;;-0.20;59.62;102961.03;5040238;28;20495;-76
2024/01/10 01:32:41;;;;;;;11.20;10.00;;;-0.20;99.90;;;-0.24;59.32;102960.69;5044134;28;20135;-76
2024/01/10 01:35:10;;;;;;;10.20;9.20;;;-0.20;99.90;;;-0.19;59.42;102957.63;5040915;28;20046;-76
2024/01/10 01:37:38;;;;;;;14.40;10.57;;;-0.20;99.90;;;-0.21;59.18;102955.69;5042459;28;20076;-76
2024/01/10 01:40:09;;;;;;;13.20;10.40;;;-0.20;99.90;;;-0.26;59.30;102951.88;5042389;28;20056;-76
2024/01/10 01:42:37;;;;;;;12.30;11.10;;;-0.20;99.90;;;-0.31;59.51;102951.53;5040817;28;20088;-77
2024/01/10 01:45:08;;;;;;;13.40;10.43;;;-0.30;99.90;;;-0.23;59.51;102952.09;5043805;28;20072;-76
2024/01/10 01:47:37;;;;;;;12.90;10.13;;;-0.20;99.90;;;-0.19;59.29;102954.13;5041226;28;20041;-77
2024/01/10 01:50:07;;;;;;;11.73;10.07;;;-0.20;99.90;;;-0.18;59.47;102951.66;5040794;28;20041;-77
2024/01/10 01:52:36;;;;;;;14.83;10.57;;;-0.20;99.90;;;-0.24;59.35;102960.69;5044596;28;20049;-76
2024/01/10 01:55:07;;;;;;;11.70;10.43;;;-0.20;99.90;;;-0.22;59.55;102949.63;5044156;28;20053;-77
2024/01/10 01:57:36;;;;;;;11.40;9.83;;;-0.20;99.90;;;-0.33;59.52;102939.25;5044390;28;20037;-76
2024/01/10 02:00:09;;;;;;;12.60;11.20;;;-0.20;99.90;;;-0.25;59.30;102951.06;5045918;28;20052;-76
2024/01/10 02:02:38;;;;;;;11.43;10.33;;;-0.20;99.90;;;-0.30;59.42;102942.97;5046335;28;20045;-77
2024/01/10 02:05:07;;;;;;;12.13;10.87;;;-0.20;99.90;;;-0.32;59.50;102946.22;5044062;28;20037;-76
2024/01/10 02:07:36;;;;;;;12.10;10.80;;;-0.30;99.90;;;-0.22;59.49;102952.22;5044108;28;20045;-76
2024/01/10 02:10:05;;;;;;;13.93;10.60;;;-0.20;99.90;;;-0.21;59.51;102942.69;5044427;28;20137;-76
2024/01/10 02:12:33;;;;;;;11.73;10.53;;;-0.20;99.90;;;-0.19;59.81;102949.81;5045831;28;20045;-76
2024/01/10 02:15:03;;;;;;;12.80;10.33;;;-0.20;99.90;;;-0.21;59.46;102943.59;5044520;28;20410;-76
2024/01/10 02:17:33;;;;;;;11.00;9.57;;;-0.20;99.90;;;-0.22;59.52;102941.81;5047391;28;20116;-76
2024/01/10 02:20:11;;;;;;;11.70;10.48;;;-0.20;99.90;;;-0.22;59.35;102944.41;5043835;28;20049;-77
2024/01/10 02:22:40;;;;;;;13.23;10.40;;;-0.20;99.90;;;-0.27;59.51;102942.28;5043366;28;20140;-77
2024/01/10 02:25:11;;;;;;;12.67;10.80;;;-0.20;99.90;;;-0.22;59.62;102939.22;5047080;28;20065;-76
2024/01/10 02:27:41;;;;;;;12.20;10.80;;;-0.20;99.90;;;-0.19;59.49;102939.41;5043848;28;20045;-76
2024/01/10 02:30:11;;;;;;;12.07;10.55;;;-0.20;99.90;;;-0.26;59.44;102944.06;5044384;28;20045;-77
2024/01/10 02:32:39;;;;;;;;;;;-0.20;99.90;;;-0.27;59.67;102929.28;5046056;28;20042;-77
2024/01/10 02:35:09;;;;;;;11.53;10.33;;;-0.20;99.90;;;-0.31;59.60;102922.94;5043656;28;19960;-77
2024/01/10 02:37:37;;;;;;;12.05;10.50;;;-0.30;99.90;;;-0.28;59.69;102920.56;5043181;28;20045;-76
2024/01/10 02:40:08;;;;;;;11.43;9.67;;;-0.30;99.90;;;-0.26;59.74;102916.38;5045825;28;20041;-77
2024/01/10 02:42:38;;;;;;;12.83;10.93;;;-0.20;99.90;;;-0.23;59.79;102921.78;5052640;28;20049;-77
2024/01/10 02:45:07;;;;;;;11.32;9.82;;;-0.20;99.90;;;-0.31;59.90;102919.47;5044242;28;20056;-77
2024/01/10 02:47:36;;;;;;;13.05;10.93;;;-0.30;99.90;;;-0.24;59.91;102919.09;5047004;28;20045;-77
2024/01/10 02:50:07;;;;;;;12.00;10.80;;;-0.30;99.90;;;-0.36;59.61;102907.81;5043586;28;20042;-77
2024/01/10 02:52:35;;;;;;;11.90;10.73;;;-0.30;99.90;;;-0.30;60.12;102910.84;5044015;28;20053;-77
2024/01/10 02:55:04;;;;;;;13.00;10.30;;;-0.30;99.90;;;-0.30;60.10;102913.44;5044989;28;20061;-76
2024/01/10 02:57:33;;;;;;;11.97;10.67;;;-0.30;99.90;;;-0.38;59.95;102914.59;5043648;28;20394;-77
2024/01/10 03:00:04;;;;;;;13.33;10.73;;;-0.30;99.90;;;-0.27;60.22;102929.28;5046226;28;20079;-74
2024/01/10 03:02:32;;;;;;;14.77;11.73;;;-0.30;99.90;;;-0.31;59.95;102922.06;5043463;28;20048;-76
2024/01/10 03:05:01;;;;;;;13.33;11.43;;;-0.30;99.90;;;-0.29;59.84;102939.53;5044710;28;20124;-77
2024/01/10 03:07:30;;;;;;;13.97;11.00;;;-0.30;99.90;;;-0.24;60.20;102914.81;5045264;28;20103;-77
2024/01/10 03:09:58;;;;;;;12.83;11.37;;;-0.30;99.90;;;-0.49;60.41;102906.03;5043183;28;20037;-77
2024/01/10 03:12:27;;;;;;;14.77;12.07;;;-0.40;99.90;;;-0.54;60.99;102903.91;5061440;28;20053;-76
2024/01/10 03:14:55;;;;;;;12.90;11.47;;;-0.50;99.90;;;-0.47;61.07;102903.53;5045452;28;20395;-76
2024/01/10 03:17:25;;;;;;;13.77;11.83;;;-0.50;99.90;;;-0.56;61.40;102890.78;5044152;28;20049;-77
2024/01/10 03:19:53;;;;;;;13.05;11.48;;;-0.50;99.90;;;-0.51;61.29;102899.81;5043722;28;20072;-77
2024/01/10 03:22:22;;;;;;;14.20;11.53;;;-0.50;99.90;;;-0.79;61.82;102929.75;5045583;28;20045;-77
2024/01/10 03:24:50;;;;;;;15.10;12.10;;;-0.60;99.90;;;-0.80;62.18;102888.09;5042460;28;20064;-75
2024/01/10 03:27:19;;;;;;;14.60;12.83;;;-0.70;99.90;;;-0.85;62.21;102881.69;5045377;28;20041;-77
2024/01/10 03:29:47;;;;;;;16.20;12.83;;;-0.80;99.90;;;-0.96;62.55;102853.22;5043316;28;20536;-77
2024/01/10 03:32:15;;;;;;;16.37;13.23;;;-0.70;99.90;;;-0.76;62.67;102885.84;5044074;28;20063;-78
2024/01/10 03:34:46;;;;;;;16.20;12.90;;;-0.70;99.90;;;-0.72;62.99;102889.56;5044868;28;20045;-77
2024/01/10 03:37:14;;;;;;;;;;;-0.70;99.90;;;-0.96;62.71;102874.00;5042838;28;20080;-77
2024/01/10 03:39:42;;;;;;;16.03;12.37;;;-0.70;99.90;;;-0.67;62.84;102888.19;5049177;28;19920;-77
2024/01/10 03:42:11;;;;;;;13.70;11.67;;;-0.60;99.90;;;-0.62;62.94;102887.72;5044523;28;20724;-77
2024/01/10 03:44:39;;;;;;;15.40;12.30;;;-0.60;99.90;;;-0.72;62.72;102869.69;5043822;28;20037;-77
2024/01/10 03:47:08;;;;;;;16.30;13.53;;;-0.60;99.90;;;-0.62;63.16;102881.66;5043566;28;20069;-77
2024/01/10 03:49:37;;;;;;;16.67;13.63;;;-0.60;99.90;;;-0.57;63.06;102880.28;5045711;28;20399;-77
2024/01/10 03:52:07;;;;;;;15.57;13.33;;;-0.50;99.90;;;-0.59;62.77;102876.66;5042187;28;20107;-76
2024/01/10 03:54:36;;;;;;;16.38;13.90;;;-0.50;99.90;;;-0.61;63.25;102886.03;5044000;28;20490;-77
2024/01/10 03:57:05;;;;;;;15.03;13.43;;;-0.60;99.90;;;-0.57;63.17;102880.28;5045452;28;20049;-78
2024/01/10 03:59:34;;;;;;;16.67;13.30;;;-0.60;99.90;;;-0.72;63.36;102872.28;5044312;28;20115;-76
2024/01/10 04:02:02;;;;;;;17.97;14.13;;;-0.60;99.90;;;-0.69;63.17;102861.19;5062918;28;20069;-78
2024/01/10 04:04:31;;;;;;;14.27;12.73;;;-0.60;99.90;;;-0.68;63.49;102871.72;5060755;28;20041;-77
2024/01/10 04:06:59;;;;;;;16.97;12.67;;;-0.60;99.90;;;-0.73;63.28;102869.56;5048312;28;20118;-76
2024/01/10 04:09:29;;;;;;;18.93;14.10;;;-0.70;99.90;;;-0.70;63.42;102867.19;5046656;28;20466;-78
2024/01/10 04:11:58;;;;;;;16.10;14.35;;;-0.70;99.90;;;-0.69;63.15;102866.38;5045957;28;20068;-77
2024/01/10 04:14:26;;;;;;;17.23;13.47;;;-0.60;99.90;;;-0.74;63.54;102862.56;5046428;28;20064;-77
2024/01/10 04:16:55;;;;;;;15.93;13.57;;;-0.70;99.90;;;-0.78;63.71;102860.53;5043945;28;20060;-76
2024/01/10 04:19:23;;;;;;;17.23;14.00;;;-0.80;99.90;;;-0.71;63.58;102863.69;5045213;28;20075;-77
2024/01/10 04:21:52;;;;;;;17.57;12.97;;;-0.70;99.90;;;-0.69;63.28;102863.78;5060801;28;20080;-77
2024/01/10 04:24:20;;;;;;;18.17;13.10;;;-0.70;99.90;;;-0.73;63.44;102856.56;5045966;28;20403;-76
2024/01/10 04:26:50;;;;;;;16.97;14.27;;;-0.70;99.90;;;-0.71;63.59;102835.13;5043825;28;20037;-77
2024/01/10 04:29:19;;;;;;;17.60;14.93;;;-0.60;99.90;;;-0.72;63.60;102845.41;5044376;28;20049;-77
2024/01/10 04:31:47;;;;;;;15.57;13.93;;;-0.60;99.90;;;-0.72;63.28;102848.00;5046037;28;20090;-79
2024/01/10 04:34:16;;;;;;;15.57;13.60;;;-0.70;99.90;;;-0.68;63.26;102857.81;5043886;28;20072;-76
2024/01/10 04:36:44;;;;;;;17.70;15.10;;;-0.70;99.90;;;-0.77;63.62;102844.19;5042257;28;20041;-77
2024/01/10 04:39:13;;;;;;;16.67;13.87;;;-0.70;99.90;;;-0.79;63.74;102836.25;5043598;28;20123;-77
2024/01/10 04:41:41;;;;;;;18.03;14.27;;;-0.70;99.90;;;-0.64;63.73;102846.88;5040301;28;20045;-76
2024/01/10 04:44:11;;;;;;;16.10;13.13;;;-0.60;99.90;;;-0.75;63.70;102847.75;5043473;28;20056;-77
2024/01/10 04:46:40;;;;;;;16.20;13.52;;;-0.70;99.90;;;-1.45;63.73;102706.78;5041759;28;20133;-77
2024/01/10 04:49:09;;;;;;;17.23;14.00;;;-0.60;99.90;;;-0.67;63.30;102849.22;5041508;28;20423;-76
2024/01/10 04:51:38;;;;;;;16.37;13.93;;;-0.60;99.90;;;-0.70;63.68;102852.53;5043312;28;20287;-77
2024/01/10 04:54:07;;;;;;;18.47;14.00;;;-0.60;99.90;;;-0.68;63.31;102844.84;5040071;28;20057;-76
2024/01/10 04:56:36;;;;;;;17.27;13.83;;;-0.60;99.90;;;-0.66;63.57;102848.44;5043521;28;20239;-77
2024/01/10 04:59:05;;;;;;;19.45;14.52;;;-0.60;99.90;;;-0.75;63.34;102859.06;5041548;28;20103;-77
2024/01/10 05:01:36;;;;;;;16.33;14.47;;;-0.70;99.90;;;-0.82;63.57;102842.91;5039861;28;20037;-76
2024/01/10 05:04:05;;;;;;;17.27;14.77;;;-0.70;99.90;;;-0.78;63.47;102851.06;5043539;28;20107;-76
2024/01/10 05:06:34;;;;;;;18.33;14.93;;;-0.70;99.90;;;-0.72;63.44;102855.78;5056014;28;20482;-77
2024/01/10 05:09:02;;;;;;;17.53;14.00;;;-0.70;99.90;;;-0.70;63.27;102859.41;5042608;28;20437;-77
2024/01/10 05:11:31;;;;;;;18.23;14.07;;;-0.70;99.90;;;-0.70;63.31;102859.41;5057406;28;20108;-77
2024/01/10 05:13:59;;;;;;;18.17;14.60;;;-0.70;99.90;;;-0.67;63.19;102852.72;5042706;28;20107;-76
2024/01/10 05:16:27;;;;;;;18.33;15.10;;;-0.70;99.90;;;-0.67;62.94;102846.63;5040710;28;20064;-77
2024/01/10 05:18:58;;;;;;;17.27;13.30;;;-0.60;99.90;;;-0.69;63.18;102848.22;5040682;28;20063;-76
2024/01/10 05:21:26;;;;;;;17.80;14.43;;;-0.60;99.90;;;-0.71;63.12;102847.19;5042666;28;20527;-77
2024/01/10 05:23:54;;;;;;;17.77;14.90;;;-0.70;99.90;;;-0.78;63.19;102844.94;5042222;28;20050;-76
2024/01/10 05:26:23;;;;;;;17.17;14.57;;;-0.80;99.90;;;-0.87;63.12;102836.50;5040931;28;20048;-77
2024/01/10 05:28:51;;;;;;;16.63;14.30;;;-0.80;99.90;;;-1.15;63.40;102800.75;5047679;28;20110;-77
2024/01/10 05:31:20;;;;;;;18.37;14.20;;;-0.90;99.90;;;-0.85;63.25;102832.31;5044040;28;20118;-77
2024/01/10 05:33:49;;;;;;;19.63;14.50;;;-0.80;99.90;;;-0.73;63.03;102840.97;5045648;28;20102;-77
2024/01/10 05:36:18;;;;;;;17.47;15.27;;;-0.70;99.90;;;-0.75;63.03;102838.28;5053309;28;20566;-76
2024/01/10 05:38:47;;;;;;;16.83;14.48;;;-0.70;99.90;;;-0.76;63.30;102835.56;5045665;28;20048;-77
2024/01/10 05:41:15;;;;;;;18.73;15.53;;;-0.70;99.90;;;-0.77;62.91;102839.84;5046851;28;20037;-76
2024/01/10 05:43:44;;;;;;;16.20;14.03;;;-0.70;99.90;;;-0.72;62.55;102832.41;5043630;28;20107;-77
2024/01/10 05:46:13;;;;;;;16.87;14.10;;;-0.70;99.90;;;-0.78;62.49;102834.56;5047041;28;20049;-77
2024/01/10 05:48:41;;;;;;;17.87;14.27;;;-0.70;99.90;;;-0.80;62.52;102831.88;5060942;28;20050;-76
2024/01/10 05:51:10;;;;;;;17.57;13.83;;;-0.70;99.90;;;-0.73;62.66;102830.59;5045742;28;20049;-76
2024/01/10 05:53:39;;;;;;;16.47;13.47;;;-0.70;99.90;;;-0.73;62.33;102828.91;5043491;28;20061;-77
2024/01/10 05:56:08;;;;;;;16.98;13.45;;;-0.70;99.90;;;-0.80;62.07;102838.75;5047177;28;20091;-74
2024/01/10 05:58:36;;;;;;;15.53;13.50;;;-0.70;99.90;;;-0.79;62.14;102830.19;5043969;28;20115;-76
2024/01/10 06:01:09;;;;;;;17.63;14.20;;;-0.70;99.90;;;-0.78;62.60;102831.97;5045652;28;20069;-77
2024/01/10 06:03:38;;;;;;;16.80;13.30;;;-0.70;99.90;;;-0.79;62.18;102825.84;5062309;28;20049;-76
2024/01/10 06:06:07;;;;;;;14.80;13.10;;;-0.70;99.90;;;-0.81;62.14;102852.53;5046712;28;20498;-76
2024/01/10 06:08:36;;;;;;;16.30;13.73;;;-0.70;99.90;;;-0.86;61.81;102823.63;5059102;28;20057;-76
2024/01/10 06:11:09;;;;;;;16.37;12.67;;;-0.80;99.90;;;-0.86;62.15;102835.69;5045726;28;20072;-77
2024/01/10 06:13:38;;;;;;;18.00;14.50;;;-0.80;99.90;;;-0.84;61.89;102829.84;5045917;28;20045;-76
2024/01/10 06:16:21;;;;;;;15.67;13.33;;;-0.80;99.90;;;-0.80;62.07;102836.16;5044687;28;20041;-77
2024/01/10 06:18:49;;;;;;;18.00;14.10;;;-0.80;99.90;;;-0.84;61.73;102832.44;5044629;28;20037;-76
2024/01/10 06:21:18;;;;;;;16.27;14.00;;;-0.80;99.90;;;-0.84;61.76;102821.13;5045818;28;20049;-75
2024/01/10 06:23:47;;;;;;;20.87;15.47;;;-0.80;99.90;;;-0.87;62.00;102836.50;5043075;28;20045;-76
2024/01/10 06:26:17;;;;;;;17.13;14.43;;;-0.80;99.90;;;-0.85;62.22;102824.53;5049902;28;20144;-76
2024/01/10 06:28:45;;;;;;;18.88;15.30;;;-0.80;99.90;;;-0.87;61.82;102831.31;5045700;28;20045;-77
2024/01/10 06:31:14;;;;;;;19.67;15.43;;;-0.80;99.90;;;-0.85;61.89;102832.31;5044904;28;20576;-76
2024/01/10 06:33:42;;;;;;;17.63;15.27;;;-0.80;99.90;;;-0.95;61.84;102822.97;5044464;28;20057;-77
2024/01/10 06:36:11;;;;;;;18.20;14.97;;;-0.90;99.90;;;-0.88;62.03;102830.41;5046321;28;20391;-76
2024/01/10 06:38:40;;;;;;;19.93;15.13;;;-0.90;99.90;;;-1.18;62.13;102795.31;5043992;28;20053;-76
2024/01/10 06:41:09;;;;;;;21.47;14.97;;;-0.90;99.90;;;-1.48;62.73;102769.72;5043509;28;20821;-76
2024/01/10 06:43:40;;;;;;;23.67;15.80;;;-1.10;99.90;;;-1.08;62.79;102833.22;5044373;28;20219;-76
2024/01/10 06:46:10;;;;;;;18.90;15.73;;;-1.10;99.90;;;-2.15;62.93;102674.72;5045195;28;20037;-77
2024/01/10 06:48:38;;;;;;;18.60;15.00;;;-1.10;99.90;;;-1.06;62.86;102829.97;5042385;28;20067;-77
2024/01/10 06:51:12;;;;;;;18.93;15.63;;;-1.00;99.90;;;-1.00;62.79;102832.09;5045157;28;20045;-77
2024/01/10 06:53:41;;;;;;;20.07;15.07;;;-1.00;99.90;;;-1.00;63.03;102825.22;5044233;28;20064;-77
2024/01/10 06:56:11;;;;;;;18.23;14.97;;;-0.90;99.90;;;-0.96;62.67;102834.13;5041614;28;20068;-77
2024/01/10 06:58:41;;;;;;;18.20;15.30;;;-0.90;99.90;;;-0.87;62.79;102842.56;5045994;28;20057;-76
2024/01/10 07:01:13;;;;;;;19.33;16.15;;;-0.90;99.90;;;-1.07;62.49;102838.56;5047156;28;20171;-78
2024/01/10 07:03:44;;;;;;;19.27;16.43;;;-0.90;99.90;;;-1.94;62.63;102687.59;5046108;28;20045;-78
2024/01/10 07:06:14;;;;;;;20.87;16.33;;;-1.00;99.90;;;-1.19;62.76;102839.31;5041564;28;20519;-79
2024/01/10 07:08:45;;;;;;;19.17;16.23;;;-1.10;99.90;;;-1.17;63.34;102875.00;5058502;28;20483;-79
2024/01/10 07:11:13;;;;;;;22.10;17.73;;;-1.10;99.90;;;-1.07;63.52;102837.66;5043201;28;20123;-78
2024/01/10 07:13:44;;;;;;;19.03;16.37;;;-1.10;99.90;;;-1.07;63.18;102840.25;5044127;28;20059;-80
2024/01/10 07:16:15;;;;;;;18.40;15.97;;;-1.00;99.90;;;-0.95;63.09;102839.44;5044815;28;20045;-78
2024/01/10 07:18:46;;;;;;;18.07;15.67;;;-0.90;99.90;;;-1.12;63.41;102802.63;5044613;28;20052;-78
2024/01/10 07:21:14;;;;;;;24.87;16.70;;;-0.90;99.90;;;-0.85;62.78;102841.00;5043039;28;20045;-75
2024/01/10 07:23:43;;;;;;;24.03;16.47;;;-0.80;99.90;;;-0.82;62.81;102841.22;5043434;28;20045;-79
2024/01/10 07:26:16;;;;;;;20.37;15.23;;;-0.80;99.90;;;-1.03;62.86;102824.09;5043884;28;20051;-78
2024/01/10 07:28:46;;;;;;;20.67;16.03;;;-0.80;99.90;;;-0.88;62.58;102845.06;5041405;28;20041;-74
2024/01/10 07:31:15;;;;;;;19.58;14.95;;;-0.90;99.90;;;-0.94;62.68;102835.16;5043220;28;20059;-75
2024/01/10 07:33:44;;;;;;;23.00;16.07;;;-0.90;99.90;;;-0.95;62.61;102831.63;5059423;28;20042;-73
2024/01/10 07:36:13;;;;;;;18.07;15.63;;;-0.90;99.90;;;-1.00;62.93;102830.41;5044155;28;20118;-75
2024/01/10 07:38:41;;;;;;;21.27;16.70;;;-1.00;99.90;;;-1.02;62.84;102828.47;5040844;28;20045;-76
2024/01/10 07:41:11;;;;;;;25.57;16.93;;;-0.90;99.90;;;-1.06;62.94;102839.44;5048159;28;20076;-76
2024/01/10 07:43:40;;;;;;;21.50;15.40;;;-1.00;99.90;;;-1.20;62.88;102835.81;5043727;28;20036;-75
2024/01/10 07:46:10;;;;;;;20.33;15.47;;;-1.10;99.90;;;-1.27;62.81;102830.97;5043192;28;20513;-79
2024/01/10 07:48:39;;;;;;;;;;;-1.10;99.90;;;-1.27;62.91;102827.47;5041571;28;20085;-78
2024/01/10 07:51:08;;;;;;;23.03;16.20;;;-1.10;99.90;;;-1.18;63.14;102864.50;5042544;28;20385;-79
2024/01/10 07:53:37;;;;;;;19.07;15.20;;;-1.10;99.90;;;-1.19;63.30;102831.53;5041369;28;20453;-81
2024/01/10 07:56:06;;;;;;;23.05;16.40;;;-1.10;99.90;;;-1.19;63.30;102837.66;5042594;28;20049;-79
2024/01/10 07:58:35;;;;;;;21.73;17.07;;;-1.10;99.90;;;-1.13;63.54;102832.91;5043578;28;20044;-79
2024/01/10 08:01:04;;;;;;;21.57;16.40;;;-1.10;99.90;;;-1.17;63.24;102815.28;5042163;28;20053;-84
2024/01/10 08:03:35;;;;;;;21.65;15.95;;;-1.00;99.90;;;-0.76;63.36;102852.06;5044863;28;20547;-85
2024/01/10 08:06:04;;;;;;;23.53;17.13;;;-0.80;99.90;;;-0.66;62.76;102843.25;5048734;28;20060;-86
2024/01/10 08:08:39;;;;;;;22.90;17.13;;;-0.60;99.90;;;-0.54;62.04;102821.63;5042638;28;20048;-78
2024/01/10 08:11:08;;;;;;;23.13;17.37;;;-0.40;99.90;;;-0.14;61.55;102851.34;5044269;28;20091;-79
2024/01/10 08:13:37;;;;;;;22.53;17.43;;;-0.10;99.90;;;-0.05;60.98;102858.09;5040240;28;20049;-78
2024/01/10 08:16:08;;;;;;;21.13;15.55;;;-0.10;99.90;;;0.02;60.40;102829.91;5044529;28;20033;-77
2024/01/10 08:18:38;;;;;;;19.13;15.50;;;0.20;99.90;;;0.39;59.22;102847.22;5043577;28;20052;-78
2024/01/10 08:21:07;;;;;;;18.50;15.13;;;0.40;99.90;;;0.48;58.16;102864.41;5041540;28;20045;-73
2024/01/10 08:23:35;;;;;;;17.67;15.10;;;0.50;99.90;;;0.48;58.09;102850.47;5044090;28;20151;-72
2024/01/10 08:26:04;;;;;;;18.17;14.50;;;0.50;99.90;;;0.02;57.24;102734.56;5047461;28;20049;-73
2024/01/10 08:28:33;;;;;;;20.05;13.95;;;0.70;99.90;;;1.03;56.64;102858.53;5043435;28;20494;-72
2024/01/10 08:31:15;;;;;;;17.40;13.93;;;0.90;99.90;;;1.09;55.57;102860.63;5058409;28;20095;-73
2024/01/10 08:33:53;;;;;;;17.80;13.57;;;1.10;99.90;;;1.18;55.23;102833.47;5040888;28;20449;-72
2024/01/10 08:36:21;;;;;;;17.35;13.95;;;1.30;99.90;;;1.48;54.48;102847.59;5041668;28;20037;-72
2024/01/10 08:38:50;;;;;;;16.70;13.03;;;1.50;99.90;;;1.80;53.85;102853.16;5044060;28;20049;-75
2024/01/10 08:41:19;;;;;;;17.43;13.03;;;1.80;99.90;;;1.78;53.62;102849.53;5040460;28;20045;-75
2024/01/10 08:43:48;;;;;;;18.40;14.43;;;1.80;99.90;;;1.94;52.75;102831.41;5042861;28;20041;-75
2024/01/10 08:46:17;;;;;;;18.57;14.20;;;1.90;99.90;;;2.04;51.66;102827.63;5058095;28;20171;-76
2024/01/10 08:48:47;;;;;;;20.00;13.40;;;2.10;99.90;;;2.19;51.48;102836.44;5042763;28;20394;-77
2024/01/10 08:51:17;;;;;;;17.27;13.17;;;2.20;99.90;;;2.45;51.16;102828.44;5040546;28;20133;-75
2024/01/10 08:53:46;;;;;;;18.98;13.32;;;2.40;99.90;;;2.59;50.56;102822.31;5057077;28;20308;-75
2024/01/10 08:56:16;;;;;;;15.37;12.90;;;2.60;99.90;;;2.42;49.71;102787.34;5040345;28;20144;-74
2024/01/10 08:58:44;;;;;;;19.27;14.30;;;2.70;99.90;;;2.79;49.78;102828.72;5041586;28;20067;-70
2024/01/10 09:01:13;;;;;;;14.97;12.73;;;2.80;99.90;;;2.81;48.73;102811.41;5042712;28;20037;-76
2024/01/10 09:03:42;;;;;;;16.23;12.37;;;2.90;99.90;;;2.38;48.76;102719.22;5040064;28;20064;-75
2024/01/10 09:06:10;;;;;;;17.77;13.67;;;3.00;99.90;;;3.00;48.16;102824.72;5043347;28;20044;-75
2024/01/10 09:08:41;;;;;;;17.55;14.25;;;3.00;99.90;;;2.96;47.83;102822.75;5041553;28;20056;-77
2024/01/10 09:11:10;;;;;;;15.18;13.13;;;3.00;99.90;;;2.96;47.73;102844.53;5041258;28;20053;-76
2024/01/10 09:13:42;;;;;;;19.05;13.13;;;3.00;99.90;;;2.41;48.41;102824.75;5043314;28;20057;-78
2024/01/10 09:16:11;;;;;;;17.60;12.93;;;2.50;99.90;;;2.87;48.84;102836.16;5040500;28;20053;-76
2024/01/10 09:18:39;;;;;;;15.30;12.10;;;2.80;99.90;;;3.00;48.01;102827.34;5042423;28;20045;-78
2024/01/10 09:21:08;;;;;;;15.70;12.57;;;3.00;99.90;;;2.97;47.05;102848.06;5041993;28;20045;-75
2024/01/10 09:23:37;;;;;;;15.13;12.30;;;3.00;99.90;;;3.14;46.86;102852.53;5040647;28;20046;-76
2024/01/10 09:26:09;;;;;;;16.50;13.27;;;3.10;99.90;;;2.91;46.36;102835.53;5059009;28;20136;-75
2024/01/10 09:28:38;;;;;;;16.27;12.50;;;3.00;99.90;;;3.05;46.92;102854.63;5040726;28;20159;-75
2024/01/10 09:31:07;;;;;;;16.30;12.00;;;3.00;99.90;;;2.69;47.47;102846.44;5040942;28;20049;-76
2024/01/10 09:33:35;;;;;;;16.10;12.87;;;2.70;99.90;;;1.39;47.49;102738.44;5041990;28;20044;-76
2024/01/10 09:36:05;;;;;;;16.67;13.03;;;2.20;99.90;;;1.75;48.00;102841.50;5040730;28;20045;-77
2024/01/10 09:38:37;;;;;;;16.25;11.80;;;2.00;99.90;;;2.23;47.64;102841.00;5043290;28;20063;-76
2024/01/10 09:41:07;;;;;;;17.80;12.23;;;2.20;99.90;;;2.37;47.90;102842.72;5041133;28;20041;-77
2024/01/10 09:43:36;;;;;;;;;;;2.30;99.90;;;2.82;47.52;102847.16;5073784;28;20041;-73
2024/01/10 09:46:07;;;;;;;16.17;13.23;;;2.70;99.90;;;2.70;46.28;102852.56;5049976;28;19924;-75
2024/01/10 09:48:36;;;;;;;13.43;11.60;;;2.70;99.90;;;2.62;46.54;102844.28;5039683;28;20379;-75
2024/01/10 09:51:05;;;;;;;15.90;12.07;;;2.70;99.90;;;3.27;46.84;102848.09;5041267;28;20045;-76
2024/01/10 09:53:36;;;;;;;15.27;11.83;;;3.10;99.90;;;3.01;45.88;102857.88;5041084;28;20096;-75
2024/01/10 09:56:10;;;;;;;15.87;12.03;;;3.10;99.70;;;3.49;45.92;102840.66;5040135;28;20045;-73
2024/01/10 09:58:40;;;;;;;14.27;11.63;;;3.40;99.90;;;3.82;44.68;102848.53;5042790;28;20041;-73
2024/01/10 10:01:09;;;;;;;;;;;3.70;97.00;;;3.87;44.30;102847.97;5057003;28;20073;-74
2024/01/10 10:03:42;;;;;;;15.73;11.60;;;3.90;95.30;;;3.62;43.93;102734.94;5041141;28;19940;-75
2024/01/10 10:06:09;;;;;;;15.57;12.13;;;4.20;93.00;;;4.35;43.62;102850.59;5039575;28;20045;-73
2024/01/10 10:08:43;;;;;;;14.60;11.03;;;4.30;91.40;;;4.35;43.73;102854.94;5040220;28;20045;-75
2024/01/10 10:11:15;;;;;;;14.80;11.07;;;4.30;90.20;;;4.23;43.31;102849.94;5041230;28;20458;-74